sensor_id;sensor_type;location;lat;lon;timestamp;P1;durP1;ratioP1;P2;durP2;ratioP2
40122;SDS011;25832;45.490;4.912;2023-03-21T00:01:00;12.07;;;6.32;;
40122;SDS011;25832;45.490;4.912;2023-03-21T00:03:29;12.95;;;6.13;;
40122;SDS011;25832;45.490;4.912;2023-03-21T00:05:56;8.45;;;4.68;;
40122;SDS011;25832;45.490;4.912;2023-03-21T00:08:22;7.47;;;5.45;;
40122;SDS011;25832;45.490;4.912;2023-03-21T00:10:56;7.75;;;5.55;;
40122;SDS011;25832;45.490;4.912;2023-03-21T00:13:24;11.18;;;6.10;;
40122;SDS011;25832;45.490;4.912;2023-03-21T00:15:52;9.30;;;5.82;;
40122;SDS011;25832;45.490;4.912;2023-03-21T00:18:21;9.65;;;5.32;;
40122;SDS011;25832;45.490;4.912;2023-03-21T00:20:58;10.80;;;5.88;;
40122;SDS011;25832;45.490;4.912;2023-03-21T00:23:28;8.48;;;5.75;;
40122;SDS011;25832;45.490;4.912;2023-03-21T00:25:55;12.70;;;7.40;;
40122;SDS011;25832;45.490;4.912;2023-03-21T00:28:22;9.35;;;5.60;;
40122;SDS011;25832;45.490;4.912;2023-03-21T00:30:48;10.70;;;6.32;;
40122;SDS011;25832;45.490;4.912;2023-03-21T00:33:14;9.15;;;6.00;;
40122;SDS011;25832;45.490;4.912;2023-03-21T00:35:40;9.93;;;5.63;;
40122;SDS011;25832;45.490;4.912;2023-03-21T00:38:12;9.38;;;6.20;;
40122;SDS011;25832;45.490;4.912;2023-03-21T00:40:39;11.35;;;7.00;;
40122;SDS011;25832;45.490;4.912;2023-03-21T00:43:05;9.98;;;6.68;;
40122;SDS011;25832;45.490;4.912;2023-03-21T00:45:31;9.18;;;5.60;;
40122;SDS011;25832;45.490;4.912;2023-03-21T00:47:57;7.88;;;5.10;;
40122;SDS011;25832;45.490;4.912;2023-03-21T00:50:23;9.50;;;6.03;;
40122;SDS011;25832;45.490;4.912;2023-03-21T00:52:49;11.88;;;5.50;;
40122;SDS011;25832;45.490;4.912;2023-03-21T00:55:16;7.32;;;4.57;;
40122;SDS011;25832;45.490;4.912;2023-03-21T00:57:42;8.43;;;5.43;;
40122;SDS011;25832;45.490;4.912;2023-03-21T01:00:11;8.07;;;5.05;;
40122;SDS011;25832;45.490;4.912;2023-03-21T01:02:38;7.63;;;4.63;;
40122;SDS011;25832;45.490;4.912;2023-03-21T01:05:20;7.15;;;3.95;;
40122;SDS011;25832;45.490;4.912;2023-03-21T01:08:06;9.23;;;5.25;;
40122;SDS011;25832;45.490;4.912;2023-03-21T01:10:31;7.32;;;4.93;;
40122;SDS011;25832;45.490;4.912;2023-03-21T01:12:57;8.82;;;4.32;;
40122;SDS011;25832;45.490;4.912;2023-03-21T01:15:23;9.82;;;6.07;;
40122;SDS011;25832;45.490;4.912;2023-03-21T01:17:49;13.35;;;6.25;;
40122;SDS011;25832;45.490;4.912;2023-03-21T01:20:15;9.88;;;6.68;;
40122;SDS011;25832;45.490;4.912;2023-03-21T01:22:40;9.55;;;6.38;;
40122;SDS011;25832;45.490;4.912;2023-03-21T01:25:06;9.68;;;7.07;;
40122;SDS011;25832;45.490;4.912;2023-03-21T01:27:33;16.33;;;9.65;;
40122;SDS011;25832;45.490;4.912;2023-03-21T01:29:59;15.70;;;10.10;;
40122;SDS011;25832;45.490;4.912;2023-03-21T01:32:24;18.42;;;10.48;;
40122;SDS011;25832;45.490;4.912;2023-03-21T01:34:50;16.77;;;10.05;;
40122;SDS011;25832;45.490;4.912;2023-03-21T01:37:15;15.50;;;9.20;;
40122;SDS011;25832;45.490;4.912;2023-03-21T01:39:43;13.48;;;8.43;;
40122;SDS011;25832;45.490;4.912;2023-03-21T01:42:11;15.40;;;8.05;;
40122;SDS011;25832;45.490;4.912;2023-03-21T01:44:51;17.40;;;8.30;;
40122;SDS011;25832;45.490;4.912;2023-03-21T01:47:18;12.38;;;7.18;;
40122;SDS011;25832;45.490;4.912;2023-03-21T01:49:44;10.95;;;7.22;;
40122;SDS011;25832;45.490;4.912;2023-03-21T01:52:14;11.68;;;7.78;;
40122;SDS011;25832;45.490;4.912;2023-03-21T01:54:44;12.77;;;7.38;;
40122;SDS011;25832;45.490;4.912;2023-03-21T01:57:13;8.73;;;6.18;;
40122;SDS011;25832;45.490;4.912;2023-03-21T01:59:46;8.93;;;6.47;;
40122;SDS011;25832;45.490;4.912;2023-03-21T02:02:18;9.20;;;5.70;;
40122;SDS011;25832;45.490;4.912;2023-03-21T02:04:48;14.15;;;7.85;;
40122;SDS011;25832;45.490;4.912;2023-03-21T02:07:37;10.45;;;6.32;;
40122;SDS011;25832;45.490;4.912;2023-03-21T02:10:08;9.38;;;6.53;;
40122;SDS011;25832;45.490;4.912;2023-03-21T02:12:37;10.07;;;6.47;;
40122;SDS011;25832;45.490;4.912;2023-03-21T02:15:04;10.77;;;7.00;;
40122;SDS011;25832;45.490;4.912;2023-03-21T02:36:49;10.10;;;6.45;;
40122;SDS011;25832;45.490;4.912;2023-03-21T02:39:25;7.85;;;5.40;;
40122;SDS011;25832;45.490;4.912;2023-03-21T02:44:59;9.40;;;5.57;;
40122;SDS011;25832;45.490;4.912;2023-03-21T02:47:33;7.60;;;5.50;;
40122;SDS011;25832;45.490;4.912;2023-03-21T02:50:13;8.10;;;5.50;;
40122;SDS011;25832;45.490;4.912;2023-03-21T02:52:44;11.23;;;6.05;;
40122;SDS011;25832;45.490;4.912;2023-03-21T02:55:13;9.05;;;5.82;;
40122;SDS011;25832;45.490;4.912;2023-03-21T02:57:54;9.98;;;6.10;;
40122;SDS011;25832;45.490;4.912;2023-03-21T03:00:25;7.63;;;4.82;;
40122;SDS011;25832;45.490;4.912;2023-03-21T03:02:53;10.52;;;5.50;;
40122;SDS011;25832;45.490;4.912;2023-03-21T03:05:21;9.73;;;5.07;;
40122;SDS011;25832;45.490;4.912;2023-03-21T03:07:55;9.43;;;6.25;;
40122;SDS011;25832;45.490;4.912;2023-03-21T03:10:36;12.75;;;7.35;;
40122;SDS011;25832;45.490;4.912;2023-03-21T03:14:23;13.48;;;8.35;;
40122;SDS011;25832;45.490;4.912;2023-03-21T03:19:00;18.05;;;8.68;;
40122;SDS011;25832;45.490;4.912;2023-03-21T03:21:43;14.82;;;8.98;;
40122;SDS011;25832;45.490;4.912;2023-03-21T03:24:30;9.70;;;6.63;;
40122;SDS011;25832;45.490;4.912;2023-03-21T03:29:26;15.40;;;8.73;;
40122;SDS011;25832;45.490;4.912;2023-03-21T03:34:31;13.63;;;7.50;;
40122;SDS011;25832;45.490;4.912;2023-03-21T03:37:03;12.65;;;8.30;;
40122;SDS011;25832;45.490;4.912;2023-03-21T03:39:32;13.05;;;6.95;;
40122;SDS011;25832;45.490;4.912;2023-03-21T03:42:07;10.90;;;6.85;;
40122;SDS011;25832;45.490;4.912;2023-03-21T03:44:41;12.05;;;7.55;;
40122;SDS011;25832;45.490;4.912;2023-03-21T03:47:08;13.70;;;7.85;;
40122;SDS011;25832;45.490;4.912;2023-03-21T03:49:37;13.52;;;8.57;;
40122;SDS011;25832;45.490;4.912;2023-03-21T03:52:15;17.92;;;8.73;;
40122;SDS011;25832;45.490;4.912;2023-03-21T03:54:46;13.48;;;8.95;;
40122;SDS011;25832;45.490;4.912;2023-03-21T03:57:15;15.73;;;9.03;;
40122;SDS011;25832;45.490;4.912;2023-03-21T03:59:41;15.93;;;8.82;;
40122;SDS011;25832;45.490;4.912;2023-03-21T04:02:09;12.40;;;7.93;;
40122;SDS011;25832;45.490;4.912;2023-03-21T04:04:34;13.77;;;8.65;;
40122;SDS011;25832;45.490;4.912;2023-03-21T04:07:00;12.75;;;7.03;;
40122;SDS011;25832;45.490;4.912;2023-03-21T04:09:28;15.27;;;7.65;;
40122;SDS011;25832;45.490;4.912;2023-03-21T04:11:54;12.98;;;7.88;;
40122;SDS011;25832;45.490;4.912;2023-03-21T04:14:21;13.35;;;7.63;;
40122;SDS011;25832;45.490;4.912;2023-03-21T04:16:47;13.10;;;8.57;;
40122;SDS011;25832;45.490;4.912;2023-03-21T04:19:14;12.95;;;8.10;;
40122;SDS011;25832;45.490;4.912;2023-03-21T04:21:40;13.57;;;8.35;;
40122;SDS011;25832;45.490;4.912;2023-03-21T04:24:06;12.77;;;8.10;;
40122;SDS011;25832;45.490;4.912;2023-03-21T04:26:32;11.82;;;7.93;;
40122;SDS011;25832;45.490;4.912;2023-03-21T04:29:00;14.60;;;7.78;;
40122;SDS011;25832;45.490;4.912;2023-03-21T04:31:27;10.98;;;7.75;;
40122;SDS011;25832;45.490;4.912;2023-03-21T04:33:55;15.27;;;7.78;;
40122;SDS011;25832;45.490;4.912;2023-03-21T04:36:22;14.30;;;8.95;;
40122;SDS011;25832;45.490;4.912;2023-03-21T04:38:54;13.38;;;8.13;;
40122;SDS011;25832;45.490;4.912;2023-03-21T04:41:25;14.55;;;8.57;;
40122;SDS011;25832;45.490;4.912;2023-03-21T04:43:54;11.85;;;7.72;;
40122;SDS011;25832;45.490;4.912;2023-03-21T04:46:21;11.30;;;8.13;;
40122;SDS011;25832;45.490;4.912;2023-03-21T04:48:47;16.55;;;8.15;;
40122;SDS011;25832;45.490;4.912;2023-03-21T04:51:13;13.35;;;8.13;;
40122;SDS011;25832;45.490;4.912;2023-03-21T04:53:39;11.65;;;8.15;;
40122;SDS011;25832;45.490;4.912;2023-03-21T04:56:09;16.25;;;8.52;;
40122;SDS011;25832;45.490;4.912;2023-03-21T04:58:36;11.60;;;8.52;;
40122;SDS011;25832;45.490;4.912;2023-03-21T05:01:01;12.55;;;7.78;;
40122;SDS011;25832;45.490;4.912;2023-03-21T05:03:29;11.68;;;7.28;;
40122;SDS011;25832;45.490;4.912;2023-03-21T05:05:58;13.57;;;7.18;;
40122;SDS011;25832;45.490;4.912;2023-03-21T05:08:24;12.10;;;7.43;;
40122;SDS011;25832;45.490;4.912;2023-03-21T05:10:50;16.83;;;9.55;;
40122;SDS011;25832;45.490;4.912;2023-03-21T05:13:16;12.77;;;7.47;;
40122;SDS011;25832;45.490;4.912;2023-03-21T05:15:42;12.90;;;8.13;;
40122;SDS011;25832;45.490;4.912;2023-03-21T05:18:07;12.50;;;7.88;;
40122;SDS011;25832;45.490;4.912;2023-03-21T05:20:37;12.30;;;8.23;;
40122;SDS011;25832;45.490;4.912;2023-03-21T05:23:07;12.88;;;7.68;;
40122;SDS011;25832;45.490;4.912;2023-03-21T05:25:37;13.93;;;9.13;;
40122;SDS011;25832;45.490;4.912;2023-03-21T05:28:04;14.77;;;8.20;;
40122;SDS011;25832;45.490;4.912;2023-03-21T05:30:31;11.48;;;7.88;;
40122;SDS011;25832;45.490;4.912;2023-03-21T05:32:57;16.25;;;8.07;;
40122;SDS011;25832;45.490;4.912;2023-03-21T05:35:23;15.07;;;8.57;;
40122;SDS011;25832;45.490;4.912;2023-03-21T05:37:48;14.38;;;7.32;;
40122;SDS011;25832;45.490;4.912;2023-03-21T05:40:14;13.18;;;8.00;;
40122;SDS011;25832;45.490;4.912;2023-03-21T05:42:40;11.38;;;8.07;;
40122;SDS011;25832;45.490;4.912;2023-03-21T05:45:05;12.10;;;8.35;;
40122;SDS011;25832;45.490;4.912;2023-03-21T05:47:31;11.93;;;8.50;;
40122;SDS011;25832;45.490;4.912;2023-03-21T05:49:57;13.77;;;8.65;;
40122;SDS011;25832;45.490;4.912;2023-03-21T05:52:23;19.20;;;10.77;;
40122;SDS011;25832;45.490;4.912;2023-03-21T05:54:48;19.88;;;12.00;;
40122;SDS011;25832;45.490;4.912;2023-03-21T05:57:14;19.35;;;10.98;;
40122;SDS011;25832;45.490;4.912;2023-03-21T05:59:43;17.33;;;11.38;;
40122;SDS011;25832;45.490;4.912;2023-03-21T06:02:08;17.40;;;10.13;;
40122;SDS011;25832;45.490;4.912;2023-03-21T06:04:35;14.73;;;9.95;;
40122;SDS011;25832;45.490;4.912;2023-03-21T06:07:01;14.45;;;9.00;;
40122;SDS011;25832;45.490;4.912;2023-03-21T06:09:27;17.25;;;10.02;;
40122;SDS011;25832;45.490;4.912;2023-03-21T06:11:53;16.65;;;9.95;;
40122;SDS011;25832;45.490;4.912;2023-03-21T06:14:21;14.70;;;9.43;;
40122;SDS011;25832;45.490;4.912;2023-03-21T06:16:47;15.65;;;9.80;;
40122;SDS011;25832;45.490;4.912;2023-03-21T06:19:12;15.73;;;9.65;;
40122;SDS011;25832;45.490;4.912;2023-03-21T06:21:38;19.27;;;11.68;;
40122;SDS011;25832;45.490;4.912;2023-03-21T06:24:04;19.67;;;10.65;;
40122;SDS011;25832;45.490;4.912;2023-03-21T06:26:30;23.48;;;13.50;;
40122;SDS011;25832;45.490;4.912;2023-03-21T06:28:55;20.63;;;13.40;;
40122;SDS011;25832;45.490;4.912;2023-03-21T06:31:21;21.63;;;13.25;;
40122;SDS011;25832;45.490;4.912;2023-03-21T06:33:47;15.60;;;10.00;;
40122;SDS011;25832;45.490;4.912;2023-03-21T06:36:13;18.27;;;11.52;;
40122;SDS011;25832;45.490;4.912;2023-03-21T06:38:39;22.27;;;12.02;;
40122;SDS011;25832;45.490;4.912;2023-03-21T06:41:05;22.10;;;13.95;;
40122;SDS011;25832;45.490;4.912;2023-03-21T06:43:31;21.65;;;14.15;;
40122;SDS011;25832;45.490;4.912;2023-03-21T06:45:58;23.27;;;11.43;;
40122;SDS011;25832;45.490;4.912;2023-03-21T06:48:24;18.10;;;11.07;;
40122;SDS011;25832;45.490;4.912;2023-03-21T06:50:50;24.58;;;16.67;;
40122;SDS011;25832;45.490;4.912;2023-03-21T06:53:17;19.15;;;12.02;;
40122;SDS011;25832;45.490;4.912;2023-03-21T06:55:51;17.73;;;12.30;;
40122;SDS011;25832;45.490;4.912;2023-03-21T06:58:17;21.15;;;11.55;;
40122;SDS011;25832;45.490;4.912;2023-03-21T07:00:43;18.33;;;11.05;;
40122;SDS011;25832;45.490;4.912;2023-03-21T07:03:10;24.52;;;13.05;;
40122;SDS011;25832;45.490;4.912;2023-03-21T07:05:36;21.98;;;11.20;;
40122;SDS011;25832;45.490;4.912;2023-03-21T07:08:03;17.23;;;11.43;;
40122;SDS011;25832;45.490;4.912;2023-03-21T07:10:29;18.70;;;11.43;;
40122;SDS011;25832;45.490;4.912;2023-03-21T07:12:57;18.67;;;11.02;;
40122;SDS011;25832;45.490;4.912;2023-03-21T07:15:23;23.20;;;13.63;;
40122;SDS011;25832;45.490;4.912;2023-03-21T07:17:50;22.45;;;13.07;;
40122;SDS011;25832;45.490;4.912;2023-03-21T07:20:16;16.58;;;11.88;;
40122;SDS011;25832;45.490;4.912;2023-03-21T07:22:41;15.40;;;11.25;;
40122;SDS011;25832;45.490;4.912;2023-03-21T07:25:08;12.68;;;9.05;;
40122;SDS011;25832;45.490;4.912;2023-03-21T07:27:34;16.65;;;8.65;;
40122;SDS011;25832;45.490;4.912;2023-03-21T07:30:01;11.30;;;7.55;;
40122;SDS011;25832;45.490;4.912;2023-03-21T07:32:31;15.93;;;8.98;;
40122;SDS011;25832;45.490;4.912;2023-03-21T07:34:58;12.88;;;9.38;;
40122;SDS011;25832;45.490;4.912;2023-03-21T07:37:24;16.25;;;10.32;;
40122;SDS011;25832;45.490;4.912;2023-03-21T07:39:50;14.07;;;10.50;;
40122;SDS011;25832;45.490;4.912;2023-03-21T07:42:16;15.40;;;9.68;;
40122;SDS011;25832;45.490;4.912;2023-03-21T07:44:42;17.98;;;10.73;;
40122;SDS011;25832;45.490;4.912;2023-03-21T07:47:08;16.17;;;9.95;;
40122;SDS011;25832;45.490;4.912;2023-03-21T07:49:34;16.85;;;11.32;;
40122;SDS011;25832;45.490;4.912;2023-03-21T07:52:01;18.42;;;10.73;;
40122;SDS011;25832;45.490;4.912;2023-03-21T07:54:27;15.73;;;9.75;;
40122;SDS011;25832;45.490;4.912;2023-03-21T07:56:54;14.82;;;10.32;;
40122;SDS011;25832;45.490;4.912;2023-03-21T07:59:20;12.43;;;9.50;;
40122;SDS011;25832;45.490;4.912;2023-03-21T08:01:46;14.52;;;10.02;;
40122;SDS011;25832;45.490;4.912;2023-03-21T08:04:12;14.27;;;10.02;;
40122;SDS011;25832;45.490;4.912;2023-03-21T08:06:38;15.25;;;10.25;;
40122;SDS011;25832;45.490;4.912;2023-03-21T08:09:05;14.85;;;10.80;;
40122;SDS011;25832;45.490;4.912;2023-03-21T08:11:31;15.68;;;10.75;;
40122;SDS011;25832;45.490;4.912;2023-03-21T08:13:57;14.95;;;9.88;;
40122;SDS011;25832;45.490;4.912;2023-03-21T08:16:24;14.40;;;9.45;;
40122;SDS011;25832;45.490;4.912;2023-03-21T08:18:49;13.85;;;9.45;;
40122;SDS011;25832;45.490;4.912;2023-03-21T08:21:15;13.50;;;10.32;;
40122;SDS011;25832;45.490;4.912;2023-03-21T08:23:41;13.55;;;10.40;;
40122;SDS011;25832;45.490;4.912;2023-03-21T08:26:07;14.23;;;9.80;;
40122;SDS011;25832;45.490;4.912;2023-03-21T08:28:33;14.30;;;9.57;;
40122;SDS011;25832;45.490;4.912;2023-03-21T08:31:01;14.90;;;8.93;;
40122;SDS011;25832;45.490;4.912;2023-03-21T08:33:32;12.63;;;9.40;;
40122;SDS011;25832;45.490;4.912;2023-03-21T08:35:58;12.23;;;8.60;;
40122;SDS011;25832;45.490;4.912;2023-03-21T08:38:24;11.48;;;8.75;;
40122;SDS011;25832;45.490;4.912;2023-03-21T08:40:53;12.45;;;9.25;;
40122;SDS011;25832;45.490;4.912;2023-03-21T08:43:24;14.35;;;8.10;;
40122;SDS011;25832;45.490;4.912;2023-03-21T08:45:50;15.85;;;9.35;;
40122;SDS011;25832;45.490;4.912;2023-03-21T08:48:16;16.15;;;9.65;;
40122;SDS011;25832;45.490;4.912;2023-03-21T08:50:42;14.40;;;10.43;;
40122;SDS011;25832;45.490;4.912;2023-03-21T08:53:08;10.80;;;7.95;;
40122;SDS011;25832;45.490;4.912;2023-03-21T08:55:34;13.27;;;8.93;;
40122;SDS011;25832;45.490;4.912;2023-03-21T08:57:59;13.02;;;8.70;;
40122;SDS011;25832;45.490;4.912;2023-03-21T09:00:26;12.25;;;8.50;;
40122;SDS011;25832;45.490;4.912;2023-03-21T09:02:52;13.20;;;9.82;;
40122;SDS011;25832;45.490;4.912;2023-03-21T09:05:18;15.27;;;9.85;;
40122;SDS011;25832;45.490;4.912;2023-03-21T09:07:45;11.02;;;8.70;;
40122;SDS011;25832;45.490;4.912;2023-03-21T09:10:12;11.63;;;8.90;;
40122;SDS011;25832;45.490;4.912;2023-03-21T09:12:42;11.40;;;8.15;;
40122;SDS011;25832;45.490;4.912;2023-03-21T09:15:09;11.52;;;7.40;;
40122;SDS011;25832;45.490;4.912;2023-03-21T09:17:36;10.45;;;7.57;;
40122;SDS011;25832;45.490;4.912;2023-03-21T09:20:13;12.38;;;7.63;;
40122;SDS011;25832;45.490;4.912;2023-03-21T09:22:47;11.65;;;7.18;;
40122;SDS011;25832;45.490;4.912;2023-03-21T09:25:14;14.07;;;7.43;;
40122;SDS011;25832;45.490;4.912;2023-03-21T09:27:40;13.63;;;8.18;;
40122;SDS011;25832;45.490;4.912;2023-03-21T09:30:17;12.23;;;7.97;;
40122;SDS011;25832;45.490;4.912;2023-03-21T09:32:44;10.07;;;6.82;;
40122;SDS011;25832;45.490;4.912;2023-03-21T09:35:12;10.75;;;6.85;;
40122;SDS011;25832;45.490;4.912;2023-03-21T09:37:40;10.88;;;6.40;;
40122;SDS011;25832;45.490;4.912;2023-03-21T09:40:16;12.25;;;7.53;;
40122;SDS011;25832;45.490;4.912;2023-03-21T09:43:27;9.80;;;5.95;;
40122;SDS011;25832;45.490;4.912;2023-03-21T09:46:09;8.52;;;5.43;;
40122;SDS011;25832;45.490;4.912;2023-03-21T09:48:50;10.00;;;7.18;;
40122;SDS011;25832;45.490;4.912;2023-03-21T09:51:18;8.63;;;4.75;;
40122;SDS011;25832;45.490;4.912;2023-03-21T09:53:46;8.82;;;5.20;;
40122;SDS011;25832;45.490;4.912;2023-03-21T09:56:14;7.68;;;4.45;;
40122;SDS011;25832;45.490;4.912;2023-03-21T09:58:45;8.35;;;4.10;;
40122;SDS011;25832;45.490;4.912;2023-03-21T10:01:29;7.97;;;4.38;;
40122;SDS011;25832;45.490;4.912;2023-03-21T10:04:06;6.60;;;3.92;;
40122;SDS011;25832;45.490;4.912;2023-03-21T10:06:35;5.88;;;3.65;;
40122;SDS011;25832;45.490;4.912;2023-03-21T10:09:06;4.80;;;3.15;;
40122;SDS011;25832;45.490;4.912;2023-03-21T10:12:23;4.95;;;3.53;;
40122;SDS011;25832;45.490;4.912;2023-03-21T10:14:41;4.68;;;2.88;;
40122;SDS011;25832;45.490;4.912;2023-03-21T10:20:00;3.88;;;3.15;;
40122;SDS011;25832;45.490;4.912;2023-03-21T10:22:38;4.43;;;3.58;;
40122;SDS011;25832;45.490;4.912;2023-03-21T10:25:04;7.32;;;2.80;;
40122;SDS011;25832;45.490;4.912;2023-03-21T10:27:31;4.40;;;3.20;;
40122;SDS011;25832;45.490;4.912;2023-03-21T10:29:58;8.98;;;3.30;;
40122;SDS011;25832;45.490;4.912;2023-03-21T10:32:25;6.88;;;4.22;;
40122;SDS011;25832;45.490;4.912;2023-03-21T10:34:54;7.03;;;3.80;;
40122;SDS011;25832;45.490;4.912;2023-03-21T10:37:22;9.10;;;4.35;;
40122;SDS011;25832;45.490;4.912;2023-03-21T10:39:49;8.90;;;3.60;;
40122;SDS011;25832;45.490;4.912;2023-03-21T10:44:46;7.30;;;3.67;;
40122;SDS011;25832;45.490;4.912;2023-03-21T10:47:18;6.47;;;4.10;;
40122;SDS011;25832;45.490;4.912;2023-03-21T10:49:49;7.05;;;3.42;;
40122;SDS011;25832;45.490;4.912;2023-03-21T10:52:17;5.65;;;3.45;;
40122;SDS011;25832;45.490;4.912;2023-03-21T10:57:16;5.20;;;3.63;;
40122;SDS011;25832;45.490;4.912;2023-03-21T11:02:36;5.13;;;3.47;;
40122;SDS011;25832;45.490;4.912;2023-03-21T11:05:06;4.30;;;2.80;;
40122;SDS011;25832;45.490;4.912;2023-03-21T11:07:42;5.13;;;2.63;;
40122;SDS011;25832;45.490;4.912;2023-03-21T11:10:24;6.70;;;2.90;;
40122;SDS011;25832;45.490;4.912;2023-03-21T11:12:54;4.22;;;3.13;;
40122;SDS011;25832;45.490;4.912;2023-03-21T11:15:41;5.00;;;2.95;;
40122;SDS011;25832;45.490;4.912;2023-03-21T11:20:49;4.55;;;2.53;;
40122;SDS011;25832;45.490;4.912;2023-03-21T11:23:16;6.40;;;2.92;;
40122;SDS011;25832;45.490;4.912;2023-03-21T11:25:43;3.53;;;3.17;;
40122;SDS011;25832;45.490;4.912;2023-03-21T11:28:15;3.95;;;2.40;;
40122;SDS011;25832;45.490;4.912;2023-03-21T11:30:55;5.03;;;2.90;;
40122;SDS011;25832;45.490;4.912;2023-03-21T11:33:42;5.88;;;2.85;;
40122;SDS011;25832;45.490;4.912;2023-03-21T11:38:42;2.70;;;1.98;;
40122;SDS011;25832;45.490;4.912;2023-03-21T11:41:08;5.85;;;2.60;;
40122;SDS011;25832;45.490;4.912;2023-03-21T11:43:50;4.80;;;2.17;;
40122;SDS011;25832;45.490;4.912;2023-03-21T11:46:21;3.60;;;2.00;;
40122;SDS011;25832;45.490;4.912;2023-03-21T11:48:48;3.55;;;2.03;;
40122;SDS011;25832;45.490;4.912;2023-03-21T11:56:48;4.75;;;2.15;;
40122;SDS011;25832;45.490;4.912;2023-03-21T12:05:18;2.70;;;1.60;;
40122;SDS011;25832;45.490;4.912;2023-03-21T12:16:10;3.00;;;1.90;;
40122;SDS011;25832;45.490;4.912;2023-03-21T12:21:18;3.80;;;1.80;;
40122;SDS011;25832;45.490;4.912;2023-03-21T12:26:31;2.40;;;1.90;;
40122;SDS011;25832;45.490;4.912;2023-03-21T12:32:03;4.97;;;2.33;;
40122;SDS011;25832;45.490;4.912;2023-03-21T12:46:02;5.97;;;1.85;;
40122;SDS011;25832;45.490;4.912;2023-03-21T12:51:07;4.82;;;2.05;;
40122;SDS011;25832;45.490;4.912;2023-03-21T12:53:58;3.58;;;1.73;;
40122;SDS011;25832;45.490;4.912;2023-03-21T12:59:54;3.03;;;1.73;;
40122;SDS011;25832;45.490;4.912;2023-03-21T13:02:28;3.42;;;1.85;;
40122;SDS011;25832;45.490;4.912;2023-03-21T13:05:05;5.68;;;1.48;;
40122;SDS011;25832;45.490;4.912;2023-03-21T13:07:49;2.70;;;1.48;;
40122;SDS011;25832;45.490;4.912;2023-03-21T13:10:18;2.95;;;1.50;;
40122;SDS011;25832;45.490;4.912;2023-03-21T13:15:40;1.85;;;1.42;;
40122;SDS011;25832;45.490;4.912;2023-03-21T13:26:44;3.40;;;1.40;;
40122;SDS011;25832;45.490;4.912;2023-03-21T13:31:48;2.55;;;1.75;;
40122;SDS011;25832;45.490;4.912;2023-03-21T13:34:15;3.63;;;2.53;;
40122;SDS011;25832;45.490;4.912;2023-03-21T13:36:42;2.70;;;1.83;;
40122;SDS011;25832;45.490;4.912;2023-03-21T13:39:23;3.25;;;1.60;;
40122;SDS011;25832;45.490;4.912;2023-03-21T13:41:51;5.43;;;1.77;;
40122;SDS011;25832;45.490;4.912;2023-03-21T13:44:22;4.95;;;1.67;;
40122;SDS011;25832;45.490;4.912;2023-03-21T13:47:03;2.25;;;1.52;;
40122;SDS011;25832;45.490;4.912;2023-03-21T13:49:34;1.95;;;1.42;;
40122;SDS011;25832;45.490;4.912;2023-03-21T13:52:23;3.38;;;1.50;;
40122;SDS011;25832;45.490;4.912;2023-03-21T13:54:53;2.97;;;1.83;;
40122;SDS011;25832;45.490;4.912;2023-03-21T13:57:41;4.35;;;1.40;;
40122;SDS011;25832;45.490;4.912;2023-03-21T14:00:29;3.00;;;1.70;;
40122;SDS011;25832;45.490;4.912;2023-03-21T14:05:31;3.85;;;1.95;;
40122;SDS011;25832;45.490;4.912;2023-03-21T14:08:03;2.58;;;1.50;;
40122;SDS011;25832;45.490;4.912;2023-03-21T14:10:33;3.70;;;1.73;;
40122;SDS011;25832;45.490;4.912;2023-03-21T14:13:20;3.20;;;1.52;;
40122;SDS011;25832;45.490;4.912;2023-03-21T14:15:52;2.55;;;1.45;;
40122;SDS011;25832;45.490;4.912;2023-03-21T14:18:22;4.10;;;1.83;;
40122;SDS011;25832;45.490;4.912;2023-03-21T14:20:53;3.80;;;1.65;;
40122;SDS011;25832;45.490;4.912;2023-03-21T14:25:46;2.80;;;1.48;;
40122;SDS011;25832;45.490;4.912;2023-03-21T14:33:17;1.48;;;1.38;;
40122;SDS011;25832;45.490;4.912;2023-03-21T14:35:47;4.55;;;1.60;;
40122;SDS011;25832;45.490;4.912;2023-03-21T14:38:24;4.53;;;1.30;;
40122;SDS011;25832;45.490;4.912;2023-03-21T14:40:56;4.00;;;1.50;;
40122;SDS011;25832;45.490;4.912;2023-03-21T14:43:22;3.20;;;1.75;;
40122;SDS011;25832;45.490;4.912;2023-03-21T14:45:50;4.88;;;1.45;;
40122;SDS011;25832;45.490;4.912;2023-03-21T14:48:18;4.80;;;1.50;;
40122;SDS011;25832;45.490;4.912;2023-03-21T14:50:49;2.63;;;1.20;;
40122;SDS011;25832;45.490;4.912;2023-03-21T14:53:25;2.85;;;1.33;;
40122;SDS011;25832;45.490;4.912;2023-03-21T14:55:55;3.42;;;1.27;;
40122;SDS011;25832;45.490;4.912;2023-03-21T14:58:27;1.55;;;1.20;;
40122;SDS011;25832;45.490;4.912;2023-03-21T15:00:55;3.08;;;1.88;;
40122;SDS011;25832;45.490;4.912;2023-03-21T15:03:25;3.13;;;1.58;;
40122;SDS011;25832;45.490;4.912;2023-03-21T15:05:52;3.47;;;1.70;;
40122;SDS011;25832;45.490;4.912;2023-03-21T15:08:21;5.78;;;1.60;;
40122;SDS011;25832;45.490;4.912;2023-03-21T15:10:55;7.03;;;2.40;;
40122;SDS011;25832;45.490;4.912;2023-03-21T15:13:27;3.45;;;1.10;;
40122;SDS011;25832;45.490;4.912;2023-03-21T15:16:16;1.75;;;1.27;;
40122;SDS011;25832;45.490;4.912;2023-03-21T15:18:43;3.08;;;1.10;;
40122;SDS011;25832;45.490;4.912;2023-03-21T15:21:16;2.63;;;1.20;;
40122;SDS011;25832;45.490;4.912;2023-03-21T15:23:52;2.92;;;2.13;;
40122;SDS011;25832;45.490;4.912;2023-03-21T15:26:21;6.85;;;1.88;;
40122;SDS011;25832;45.490;4.912;2023-03-21T15:28:50;2.45;;;1.50;;
40122;SDS011;25832;45.490;4.912;2023-03-21T15:31:23;4.60;;;1.55;;
40122;SDS011;25832;45.490;4.912;2023-03-21T15:34:30;3.83;;;1.58;;
40122;SDS011;25832;45.490;4.912;2023-03-21T15:37:05;2.05;;;1.30;;
40122;SDS011;25832;45.490;4.912;2023-03-21T15:39:33;3.33;;;1.50;;
40122;SDS011;25832;45.490;4.912;2023-03-21T15:44:52;4.28;;;1.73;;
40122;SDS011;25832;45.490;4.912;2023-03-21T15:47:39;2.67;;;1.20;;
40122;SDS011;25832;45.490;4.912;2023-03-21T15:52:51;3.67;;;1.75;;
40122;SDS011;25832;45.490;4.912;2023-03-21T15:55:20;4.03;;;1.35;;
40122;SDS011;25832;45.490;4.912;2023-03-21T15:57:51;3.45;;;1.52;;
40122;SDS011;25832;45.490;4.912;2023-03-21T16:00:24;2.70;;;1.45;;
40122;SDS011;25832;45.490;4.912;2023-03-21T16:03:06;5.55;;;1.75;;
40122;SDS011;25832;45.490;4.912;2023-03-21T16:05:40;3.75;;;1.50;;
40122;SDS011;25832;45.490;4.912;2023-03-21T16:08:17;2.63;;;1.23;;
40122;SDS011;25832;45.490;4.912;2023-03-21T16:10:45;2.88;;;1.60;;
40122;SDS011;25832;45.490;4.912;2023-03-21T16:13:12;2.13;;;1.25;;
40122;SDS011;25832;45.490;4.912;2023-03-21T16:15:38;6.00;;;1.70;;
40122;SDS011;25832;45.490;4.912;2023-03-21T16:18:05;3.28;;;1.80;;
40122;SDS011;25832;45.490;4.912;2023-03-21T16:20:35;3.63;;;1.40;;
40122;SDS011;25832;45.490;4.912;2023-03-21T16:23:05;1.52;;;1.27;;
40122;SDS011;25832;45.490;4.912;2023-03-21T16:25:36;1.77;;;1.23;;
40122;SDS011;25832;45.490;4.912;2023-03-21T16:28:02;1.40;;;1.10;;
40122;SDS011;25832;45.490;4.912;2023-03-21T16:30:27;4.20;;;1.75;;
40122;SDS011;25832;45.490;4.912;2023-03-21T16:32:53;5.80;;;1.45;;
40122;SDS011;25832;45.490;4.912;2023-03-21T16:35:20;7.30;;;4.25;;
40122;SDS011;25832;45.490;4.912;2023-03-21T16:37:46;9.60;;;5.70;;
40122;SDS011;25832;45.490;4.912;2023-03-21T16:40:16;6.65;;;4.22;;
40122;SDS011;25832;45.490;4.912;2023-03-21T16:42:57;2.83;;;1.80;;
40122;SDS011;25832;45.490;4.912;2023-03-21T16:45:23;1.63;;;1.15;;
40122;SDS011;25832;45.490;4.912;2023-03-21T16:47:49;4.78;;;1.63;;
40122;SDS011;25832;45.490;4.912;2023-03-21T16:50:20;3.30;;;1.52;;
40122;SDS011;25832;45.490;4.912;2023-03-21T16:53:05;3.80;;;1.63;;
40122;SDS011;25832;45.490;4.912;2023-03-21T16:55:31;3.97;;;1.30;;